createdAt,value
2023-03-26T00:01:53.093Z,100176.53
2023-03-26T00:04:21.940Z,100182.09
2023-03-26T00:06:50.409Z,100192.47
2023-03-26T00:09:18.569Z,100193.22
2023-03-26T00:11:46.824Z,100201.09
2023-03-26T00:14:17.819Z,100200.38
2023-03-26T00:16:47.605Z,100196.84
2023-03-26T00:19:15.694Z,100211.84
2023-03-26T00:21:43.354Z,100218.97
2023-03-26T00:24:16.373Z,100207.75
2023-03-26T00:26:44.861Z,100214.59
2023-03-26T00:29:15.589Z,100216.69
2023-03-26T00:31:46.412Z,100223.56
2023-03-26T00:34:18.642Z,100220.37
2023-03-26T00:36:47.096Z,100226.72
2023-03-26T00:39:15.309Z,100235.19
2023-03-26T00:41:43.364Z,100223.75
2023-03-26T00:44:11.651Z,100222.12
2023-03-26T00:46:39.653Z,100219.28
2023-03-26T00:49:11.099Z,100213.59
2023-03-26T00:51:39.458Z,100226.13
2023-03-26T00:54:08.438Z,100217.59
2023-03-26T00:56:36.164Z,100213.22
2023-03-26T00:59:04.231Z,100200.44
2023-03-26T01:01:32.629Z,100200.91
2023-03-26T01:04:28.380Z,100182.97
2023-03-26T01:07:28.947Z,100192.41
2023-03-26T01:09:58.828Z,100184.75
2023-03-26T01:12:32.044Z,100170.94
2023-03-26T01:15:01.394Z,100181.12
2023-03-26T01:17:34.040Z,100202.78
2023-03-26T01:20:15.080Z,100200.63
2023-03-26T01:22:47.055Z,100196.31
2023-03-26T01:25:14.636Z,100204.38
2023-03-26T01:27:42.712Z,100207.03
2023-03-26T01:30:19.718Z,100205.41
2023-03-26T01:32:53.522Z,100203.66
2023-03-26T01:35:49.679Z,100195.88
2023-03-26T01:38:36.175Z,100195.31
2023-03-26T01:41:54.495Z,100195.31
2023-03-26T01:44:31.386Z,100197.38
2023-03-26T01:46:59.658Z,100190.44
2023-03-26T01:49:28.366Z,100202.16
2023-03-26T01:51:56.867Z,100189.91
2023-03-26T01:54:27.709Z,100198.56
2023-03-26T01:57:16.003Z,100201.25
2023-03-26T01:59:57.571Z,100202.94
2023-03-26T02:02:32.818Z,100196.06
2023-03-26T02:05:08.463Z,100203.16
2023-03-26T02:07:51.136Z,100203.19
2023-03-26T02:10:42.560Z,100216.31
2023-03-26T02:13:11.968Z,100210.44
2023-03-26T02:15:41.129Z,100214.94
2023-03-26T02:18:13.614Z,100200.34
2023-03-26T02:20:41.761Z,100211.47
2023-03-26T02:23:09.953Z,100207.25
2023-03-26T02:25:39.920Z,100206.41
2023-03-26T02:28:07.896Z,100203.16
2023-03-26T02:30:35.680Z,100205.88
2023-03-26T02:33:03.664Z,100215.62
2023-03-26T02:35:32.847Z,100214.69
2023-03-26T02:38:02.011Z,100216.81
2023-03-26T02:40:29.691Z,100224.72
2023-03-26T02:42:58.814Z,100222.34
2023-03-26T02:45:27.204Z,100211.91
2023-03-26T02:47:56.132Z,100221.66
2023-03-26T02:50:25.563Z,100222.75
2023-03-26T02:52:54.224Z,100215.19
2023-03-26T02:55:21.861Z,100216.87
2023-03-26T02:57:50.665Z,100225.72
2023-03-26T03:00:22.053Z,100224.97
2023-03-26T03:02:58.083Z,100224.97
2023-03-26T03:05:26.690Z,100219.78
2023-03-26T03:07:58.127Z,100214.97
2023-03-26T03:10:32.740Z,100213.28
2023-03-26T03:13:01.789Z,100206.31
2023-03-26T03:15:29.393Z,100208.19
2023-03-26T03:17:57.065Z,100201.31
2023-03-26T03:20:27.504Z,100204.81
2023-03-26T03:22:55.410Z,100207.50
2023-03-26T03:25:23.462Z,100195.50
2023-03-26T03:27:51.280Z,100202.50
2023-03-26T03:30:19.384Z,100191.38
2023-03-26T03:32:48.024Z,100201.84
2023-03-26T03:35:16.948Z,100208.09
2023-03-26T03:37:44.779Z,100207.31
2023-03-26T03:40:13.189Z,100197.09
2023-03-26T03:42:41.049Z,100193.72
2023-03-26T03:45:09.672Z,100205.03
2023-03-26T03:47:38.589Z,100207.66
2023-03-26T03:50:07.409Z,100205.16
2023-03-26T03:52:35.878Z,100199.22
2023-03-26T03:55:04.185Z,100197.44
2023-03-26T03:57:34.713Z,100193.16
2023-03-26T04:00:06.354Z,100195.94
2023-03-26T04:02:43.347Z,100199.47
2023-03-26T04:05:12.045Z,100207.31
2023-03-26T04:07:40.423Z,100215.31
2023-03-26T04:10:10.331Z,100214.47
2023-03-26T04:12:45.736Z,100212.91
2023-03-26T04:15:13.844Z,100205.91
2023-03-26T04:17:45.417Z,100205.88
2023-03-26T04:20:16.394Z,100208.66
2023-03-26T04:22:44.841Z,100206.19
2023-03-26T04:25:13.447Z,100205.34
2023-03-26T04:27:44.203Z,100210.41
2023-03-26T04:30:16.043Z,100214.06
2023-03-26T04:32:45.518Z,100216.81
2023-03-26T04:35:15.040Z,100215.97
2023-03-26T04:37:44.379Z,100221.91
2023-03-26T04:40:20.413Z,100222.59
2023-03-26T04:42:48.542Z,100231.22
2023-03-26T04:45:22.849Z,100234.78
2023-03-26T04:47:53.536Z,100238.06
2023-03-26T04:50:21.307Z,100237.22
2023-03-26T04:52:49.516Z,100239.66
2023-03-26T04:55:36.785Z,100235.28
2023-03-26T04:58:06.070Z,100235.28
2023-03-26T05:00:36.101Z,100243.56
2023-03-26T05:03:04.280Z,100237.53
2023-03-26T05:05:32.141Z,100239.19
2023-03-26T05:08:00.401Z,100236.63
2023-03-26T05:10:28.273Z,100235.62
2023-03-26T05:12:56.474Z,100246.75
2023-03-26T05:15:24.535Z,100246.69
2023-03-26T05:17:52.787Z,100249.25
2023-03-26T05:20:26.464Z,100243.13
2023-03-26T05:22:54.414Z,100247.28
2023-03-26T05:25:22.973Z,100248.66
2023-03-26T05:27:50.593Z,100247.66
2023-03-26T05:30:21.401Z,100260.19
2023-03-26T05:32:50.062Z,100260.94
2023-03-26T05:35:19.328Z,100266.94
2023-03-26T05:37:47.546Z,100266.81
2023-03-26T05:40:17.294Z,100259.69
2023-03-26T05:42:46.114Z,100256.00
2023-03-26T05:45:16.765Z,100250.59
2023-03-26T05:47:44.561Z,100251.94
2023-03-26T05:50:12.522Z,100250.84
2023-03-26T05:52:41.016Z,100254.72
2023-03-26T05:55:09.461Z,100259.62
2023-03-26T05:57:42.790Z,100255.88
2023-03-26T06:00:16.712Z,100258.03
2023-03-26T06:02:44.413Z,100254.37
2023-03-26T06:05:13.226Z,100266.19
2023-03-26T06:07:44.525Z,100269.16
2023-03-26T06:10:18.089Z,100263.72
2023-03-26T06:12:46.692Z,100265.03
2023-03-26T06:15:15.541Z,100267.81
2023-03-26T06:17:43.148Z,100267.31
2023-03-26T06:20:12.956Z,100273.34
2023-03-26T06:22:41.193Z,100259.41
2023-03-26T06:25:10.091Z,100270.03
2023-03-26T06:27:38.053Z,100261.53
2023-03-26T06:30:08.624Z,100272.28
2023-03-26T06:32:36.908Z,100261.50
2023-03-26T06:35:06.402Z,100256.66
2023-03-26T06:37:34.770Z,100257.00
2023-03-26T06:40:03.869Z,100264.28
2023-03-26T06:43:08.699Z,100268.06
2023-03-26T06:45:22.086Z,100261.09
2023-03-26T06:47:52.743Z,100260.38
2023-03-26T06:50:22.124Z,100265.59
2023-03-26T06:52:54.063Z,100262.44
2023-03-26T06:55:21.948Z,100261.47
2023-03-26T06:57:53.202Z,100264.88
2023-03-26T07:00:22.662Z,100257.37
2023-03-26T07:02:53.244Z,100250.41
2023-03-26T07:05:33.026Z,100249.63
2023-03-26T07:08:03.390Z,100256.22
2023-03-26T07:10:43.246Z,100239.16
2023-03-26T07:13:11.093Z,100240.03
2023-03-26T07:15:41.565Z,100241.56
2023-03-26T07:18:09.784Z,100239.59
2023-03-26T07:20:37.832Z,100232.72
2023-03-26T07:23:06.166Z,100233.06
2023-03-26T07:25:34.608Z,100234.91
2023-03-26T07:28:11.304Z,100238.09
2023-03-26T07:31:04.435Z,100236.50
2023-03-26T07:34:13.246Z,100238.22
2023-03-26T07:36:59.784Z,100236.94
2023-03-26T07:39:43.888Z,100229.31
2023-03-26T07:42:43.380Z,100234.13
2023-03-26T07:45:41.811Z,100233.81
2023-03-26T07:48:18.859Z,100236.50
2023-03-26T07:50:47.562Z,100229.94
2023-03-26T07:53:18.207Z,100250.59
2023-03-26T07:55:52.234Z,100248.53
2023-03-26T07:58:48.993Z,100237.66
2023-03-26T08:01:45.436Z,100235.94
2023-03-26T08:04:29.918Z,100242.78
2023-03-26T08:07:37.533Z,100242.72
2023-03-26T08:10:23.865Z,100237.97
2023-03-26T08:13:07.382Z,100237.97
2023-03-26T08:15:39.329Z,100232.03
2023-03-26T08:18:31.619Z,100224.03
2023-03-26T08:21:14.082Z,100221.22
2023-03-26T08:23:51.972Z,100222.25
2023-03-26T08:26:45.534Z,100216.13
2023-03-26T08:29:34.578Z,100210.91
2023-03-26T08:32:04.578Z,100216.97
2023-03-26T08:34:32.232Z,100208.25
2023-03-26T08:36:59.813Z,100209.78
2023-03-26T08:39:27.966Z,100199.63
2023-03-26T08:41:58.638Z,100197.34
2023-03-26T08:44:32.306Z,100206.31
2023-03-26T08:47:44.412Z,100201.41
2023-03-26T08:50:26.631Z,100200.91
2023-03-26T08:53:12.738Z,100201.91
2023-03-26T08:55:55.300Z,100192.22
2023-03-26T08:58:44.067Z,100194.25
2023-03-26T09:01:23.903Z,100196.13
2023-03-26T09:04:29.668Z,100193.56
2023-03-26T09:07:19.001Z,100186.47
2023-03-26T09:10:09.163Z,100186.66
2023-03-26T09:13:14.250Z,100178.47
2023-03-26T09:16:00.493Z,100178.16
2023-03-26T09:18:53.672Z,100174.34
2023-03-26T09:21:37.965Z,100177.16
2023-03-26T09:24:33.296Z,100172.28
2023-03-26T09:27:08.247Z,100173.22
2023-03-26T09:29:57.122Z,100175.91
2023-03-26T09:33:19.240Z,100176.50
2023-03-26T09:35:55.118Z,100167.28
2023-03-26T09:38:44.914Z,100163.09
2023-03-26T09:41:25.754Z,100164.91
2023-03-26T09:44:12.770Z,100155.22
2023-03-26T09:47:09.187Z,100157.19
2023-03-26T09:49:49.610Z,100152.28
2023-03-26T09:52:31.924Z,100145.56
2023-03-26T09:55:21.158Z,100145.59
2023-03-26T09:58:00.635Z,100149.53
2023-03-26T10:00:46.835Z,100149.75
2023-03-26T10:03:17.782Z,100142.78
2023-03-26T10:05:57.593Z,100133.75
2023-03-26T10:08:34.811Z,100129.69
2023-03-26T10:11:14.398Z,100128.44
2023-03-26T10:13:59.620Z,100124.09
2023-03-26T10:16:40.214Z,100125.53
2023-03-26T10:19:23.635Z,100114.56
2023-03-26T10:22:11.998Z,100106.72
2023-03-26T10:25:01.464Z,100105.66
2023-03-26T10:27:47.634Z,100095.66
2023-03-26T10:30:43.306Z,100098.28
2023-03-26T10:33:22.440Z,100093.81
2023-03-26T10:36:18.837Z,100082.94
2023-03-26T10:39:09.224Z,100079.28
2023-03-26T10:41:45.957Z,100080.66
2023-03-26T10:44:31.795Z,100068.72
2023-03-26T10:47:30.701Z,100054.06
2023-03-26T10:50:23.065Z,100062.91
2023-03-26T10:53:20.756Z,100060.69
2023-03-26T10:55:54.892Z,100056.84
2023-03-26T10:58:27.634Z,100063.00
2023-03-26T11:01:10.637Z,100046.72
2023-03-26T11:03:54.936Z,100045.22
2023-03-26T11:06:51.707Z,100029.66
2023-03-26T11:09:28.620Z,100032.59
2023-03-26T11:12:26.708Z,100023.75
2023-03-26T11:15:02.115Z,100022.25
2023-03-26T11:17:42.887Z,100022.12
2023-03-26T11:20:32.690Z,100020.19
2023-03-26T11:23:06.590Z,100010.91
2023-03-26T11:26:14.619Z,100002.53
2023-03-26T11:29:31.782Z,100002.09
2023-03-26T11:32:05.490Z,100007.97
2023-03-26T11:34:38.591Z,99994.28
2023-03-26T11:37:12.571Z,99987.72
2023-03-26T11:39:48.821Z,99985.91
2023-03-26T11:42:18.737Z,99986.28
2023-03-26T11:44:58.639Z,99971.13
2023-03-26T11:47:32.550Z,99959.34
2023-03-26T11:50:01.934Z,99955.50
2023-03-26T11:52:29.991Z,99951.94
2023-03-26T11:54:58.600Z,99949.56
2023-03-26T11:57:30.345Z,99959.50
2023-03-26T12:00:16.690Z,99949.69
2023-03-26T12:02:46.241Z,99954.94
2023-03-26T12:05:18.829Z,99944.91
2023-03-26T12:07:58.170Z,99930.84
2023-03-26T12:10:39.789Z,99931.69
2023-03-26T12:13:28.577Z,99927.28
2023-03-26T12:16:10.036Z,99929.03
2023-03-26T12:18:39.870Z,99916.97
2023-03-26T12:21:13.885Z,99913.66
2023-03-26T12:23:54.037Z,99908.75
2023-03-26T12:26:34.061Z,99902.28
2023-03-26T12:29:17.170Z,99895.41
2023-03-26T12:31:56.013Z,99888.56
2023-03-26T12:34:31.132Z,99883.50
2023-03-26T12:37:02.085Z,99878.47
2023-03-26T12:40:09.140Z,99873.56
2023-03-26T12:44:50.580Z,99871.00
2023-03-26T12:45:23.673Z,99857.56
2023-03-26T12:48:02.366Z,99847.31
2023-03-26T12:50:57.191Z,99847.06
2023-03-26T12:53:33.363Z,99838.31
2023-03-26T12:56:19.927Z,99841.00
2023-03-26T12:59:02.418Z,99833.16
2023-03-26T13:01:39.812Z,99818.22
2023-03-26T13:05:02.266Z,99825.03
2023-03-26T13:07:39.995Z,99829.09
2023-03-26T13:10:32.387Z,99825.19
2023-03-26T13:13:28.686Z,99810.44
2023-03-26T13:16:34.132Z,99816.75
2023-03-26T13:19:05.372Z,99806.78
2023-03-26T13:21:33.113Z,99800.94
2023-03-26T13:24:07.076Z,99802.75
2023-03-26T13:26:47.665Z,99798.53
2023-03-26T13:29:23.612Z,99797.13
2023-03-26T13:32:10.275Z,99778.66
2023-03-26T13:35:02.532Z,99776.53
2023-03-26T13:37:47.572Z,99765.88
2023-03-26T13:40:57.793Z,99765.22
2023-03-26T13:43:46.996Z,99766.41
2023-03-26T13:46:31.394Z,99753.97
2023-03-26T13:49:15.731Z,99755.94
2023-03-26T13:51:45.366Z,99746.88
2023-03-26T13:54:45.881Z,99749.22
2023-03-26T13:57:29.955Z,99742.50
2023-03-26T14:00:06.674Z,99742.63
2023-03-26T14:02:41.771Z,99740.38
2023-03-26T14:05:29.834Z,99738.81
2023-03-26T14:08:04.865Z,99734.59
2023-03-26T14:10:36.749Z,99733.66
2023-03-26T14:13:20.730Z,99726.37
2023-03-26T14:15:52.908Z,99723.44
2023-03-26T14:18:39.683Z,99713.38
2023-03-26T14:21:25.958Z,99703.41
2023-03-26T14:24:09.772Z,99699.78
2023-03-26T14:26:46.407Z,99691.94
2023-03-26T14:29:18.897Z,99678.75
2023-03-26T14:32:02.444Z,99677.38
2023-03-26T14:34:54.574Z,99679.59
2023-03-26T14:37:46.463Z,99677.94
2023-03-26T14:40:27.208Z,99670.50
2023-03-26T14:43:05.458Z,99670.25
2023-03-26T14:45:48.262Z,99663.59
2023-03-26T14:48:34.416Z,99669.34
2023-03-26T14:51:16.622Z,99655.63
2023-03-26T14:53:53.547Z,99650.91
2023-03-26T14:56:46.918Z,99645.59
2023-03-26T14:59:40.785Z,99641.81
2023-03-26T15:02:20.772Z,99631.31
2023-03-26T15:04:54.399Z,99633.81
2023-03-26T15:07:45.928Z,99622.03
2023-03-26T15:10:22.601Z,99624.31
2023-03-26T15:13:16.056Z,99615.50
2023-03-26T15:15:55.563Z,99609.88
2023-03-26T15:18:23.340Z,99613.13
2023-03-26T15:21:19.200Z,99598.72
2023-03-26T15:24:32.366Z,99588.59
2023-03-26T15:27:34.560Z,99593.78
2023-03-26T15:30:08.545Z,99578.28
2023-03-26T15:33:10.664Z,99582.31
2023-03-26T15:36:09.128Z,99577.94
2023-03-26T15:39:06.667Z,99573.59
2023-03-26T15:41:56.042Z,99573.91
2023-03-26T15:44:29.854Z,99563.00
2023-03-26T15:47:01.541Z,99564.69
2023-03-26T15:49:39.805Z,99564.25
2023-03-26T15:52:29.675Z,99559.50
2023-03-26T15:55:06.025Z,99562.00
2023-03-26T15:57:41.176Z,99561.72
2023-03-26T16:00:34.379Z,99554.88
2023-03-26T16:03:25.753Z,99548.16
2023-03-26T16:06:02.392Z,99545.75
2023-03-26T16:08:41.752Z,99540.56
2023-03-26T16:11:12.730Z,99542.53
2023-03-26T16:13:49.953Z,99534.81
2023-03-26T16:16:22.543Z,99528.87
2023-03-26T16:19:21.887Z,99528.31
2023-03-26T16:22:14.156Z,99517.91
2023-03-26T16:24:46.766Z,99522.63
2023-03-26T16:27:15.235Z,99512.69
2023-03-26T16:30:29.047Z,99506.63
2023-03-26T16:33:16.752Z,99504.84
2023-03-26T16:36:25.972Z,99507.66
2023-03-26T16:39:11.881Z,99502.81
2023-03-26T16:41:39.654Z,99500.88
2023-03-26T16:44:35.030Z,99491.53
2023-03-26T16:47:18.284Z,99494.94
2023-03-26T16:50:08.468Z,99487.56
2023-03-26T16:52:52.026Z,99484.56
2023-03-26T16:56:05.213Z,99483.28
2023-03-26T16:58:55.946Z,99484.53
2023-03-26T17:01:50.500Z,99478.41
2023-03-26T17:04:26.253Z,99483.03
2023-03-26T17:07:05.897Z,99481.41
2023-03-26T17:09:37.871Z,99473.47
2023-03-26T17:12:23.863Z,99478.28
2023-03-26T17:15:04.881Z,99472.75
2023-03-26T17:17:44.408Z,99481.19
2023-03-26T17:20:33.514Z,99473.72
2023-03-26T17:23:22.715Z,99466.16
2023-03-26T17:25:57.753Z,99473.47
2023-03-26T17:28:38.649Z,99463.12
2023-03-26T17:31:21.221Z,99478.28
2023-03-26T17:33:49.953Z,99477.19
2023-03-26T17:36:31.482Z,99469.94
2023-03-26T17:39:01.882Z,99477.53
2023-03-26T17:41:50.849Z,99473.28
2023-03-26T17:44:36.814Z,99473.88
2023-03-26T17:47:07.135Z,99475.06
2023-03-26T17:49:35.475Z,99473.59
2023-03-26T17:52:04.207Z,99476.31
2023-03-26T17:54:44.454Z,99473.78
2023-03-26T17:57:15.858Z,99473.69
2023-03-26T17:59:45.549Z,99473.03
2023-03-26T18:02:19.311Z,99461.41
2023-03-26T18:04:51.679Z,99465.22
2023-03-26T18:07:37.719Z,99468.81
2023-03-26T18:10:38.959Z,99467.19
2023-03-26T18:13:09.843Z,99454.00
2023-03-26T18:16:11.743Z,99450.75
2023-03-26T18:18:49.865Z,99449.72
2023-03-26T18:21:38.918Z,99448.88
2023-03-26T18:24:08.924Z,99448.50
2023-03-26T18:26:42.861Z,99438.06
2023-03-26T18:29:24.708Z,99442.81
2023-03-26T18:31:57.743Z,99432.19
2023-03-26T18:34:29.202Z,99431.47
2023-03-26T18:37:11.572Z,99432.53
2023-03-26T18:39:39.761Z,99427.38
2023-03-26T18:42:22.631Z,99420.41
2023-03-26T18:44:54.255Z,99411.88
2023-03-26T18:47:29.122Z,99410.31
2023-03-26T18:49:58.570Z,99412.19
2023-03-26T18:52:28.677Z,99399.34
2023-03-26T18:54:59.144Z,99390.50
2023-03-26T18:57:29.050Z,99384.72
2023-03-26T19:00:14.625Z,99387.47
2023-03-26T19:02:42.578Z,99384.53
2023-03-26T19:05:15.307Z,99380.00
2023-03-26T19:07:45.816Z,99377.47
2023-03-26T19:10:18.644Z,99374.09
2023-03-26T19:12:46.494Z,99372.75
2023-03-26T19:15:16.444Z,99365.81
2023-03-26T19:17:59.797Z,99363.38
2023-03-26T19:20:30.037Z,99360.56
2023-03-26T19:22:58.081Z,99362.13
2023-03-26T19:25:29.096Z,99347.28
2023-03-26T19:27:57.333Z,99338.87
2023-03-26T19:30:34.109Z,99338.87
2023-03-26T19:33:12.371Z,99339.06
2023-03-26T19:35:42.775Z,99338.75
2023-03-26T19:38:25.671Z,99332.53
2023-03-26T19:40:57.784Z,99325.56
2023-03-26T19:43:26.986Z,99315.87
2023-03-26T19:46:00.470Z,99307.28
2023-03-26T19:48:45.528Z,99310.56
2023-03-26T19:51:32.233Z,99314.87
2023-03-26T19:54:06.235Z,99306.13
2023-03-26T19:56:34.442Z,99307.28
2023-03-26T19:59:02.612Z,99296.81
2023-03-26T20:01:31.901Z,99298.81
2023-03-26T20:04:01.778Z,99288.22
2023-03-26T20:06:42.416Z,99286.41
2023-03-26T20:09:13.150Z,99275.03
2023-03-26T20:11:41.891Z,99277.75
2023-03-26T20:14:16.454Z,99265.44
2023-03-26T20:16:45.671Z,99268.81
2023-03-26T20:19:15.062Z,99257.53
2023-03-26T20:21:44.451Z,99247.13
2023-03-26T20:24:15.742Z,99241.72
2023-03-26T20:26:44.767Z,99231.19
2023-03-26T20:29:13.433Z,99229.53
2023-03-26T20:31:42.839Z,99233.84
2023-03-26T20:34:17.395Z,99229.31
2023-03-26T20:36:46.941Z,99224.88
2023-03-26T20:39:15.097Z,99222.16
2023-03-26T20:41:48.296Z,99229.94
2023-03-26T20:44:18.322Z,99223.66
2023-03-26T20:46:48.295Z,99221.72
2023-03-26T20:49:16.441Z,99215.50
2023-03-26T20:51:45.721Z,99219.09
2023-03-26T20:54:15.924Z,99214.00
2023-03-26T20:56:44.016Z,99213.12
2023-03-26T20:59:17.911Z,99195.59
2023-03-26T21:01:48.912Z,99189.59
2023-03-26T21:04:17.695Z,99193.41
2023-03-26T21:06:45.597Z,99184.47
2023-03-26T21:09:17.690Z,99176.72
2023-03-26T21:11:52.321Z,99191.41
2023-03-26T21:14:41.278Z,99189.66
2023-03-26T21:17:18.244Z,99172.28
2023-03-26T21:19:47.188Z,99181.06
2023-03-26T21:22:28.281Z,99166.56
2023-03-26T21:25:01.806Z,99140.91
2023-03-26T21:27:44.231Z,99132.94
2023-03-26T21:30:16.590Z,99127.06
2023-03-26T21:32:46.252Z,99111.59
2023-03-26T21:35:16.187Z,99118.66
2023-03-26T21:37:45.730Z,99111.00
2023-03-26T21:40:14.843Z,99097.34
2023-03-26T21:42:50.174Z,99091.44
2023-03-26T21:45:18.969Z,99085.69
2023-03-26T21:47:47.538Z,99089.72
2023-03-26T21:50:18.882Z,99087.59
2023-03-26T21:52:47.232Z,99092.03
2023-03-26T21:55:17.022Z,99098.06
2023-03-26T21:58:08.929Z,99087.56
2023-03-26T22:00:45.820Z,99102.59
2023-03-26T22:03:25.859Z,99100.72
2023-03-26T22:06:07.209Z,99103.16
2023-03-26T22:08:38.682Z,99094.87
2023-03-26T22:11:07.414Z,99086.97
2023-03-26T22:13:38.848Z,99079.09
2023-03-26T22:16:08.743Z,99068.03
2023-03-26T22:18:36.578Z,99058.88
2023-03-26T22:21:04.600Z,99069.47
2023-03-26T22:23:36.172Z,99057.91
2023-03-26T22:26:05.102Z,99037.00
2023-03-26T22:28:33.198Z,99048.59
2023-03-26T22:31:07.315Z,99042.75
2023-03-26T22:33:36.132Z,99058.38
2023-03-26T22:36:03.946Z,99033.06
2023-03-26T22:38:31.538Z,99023.69
2023-03-26T22:40:59.508Z,99016.59
2023-03-26T22:43:27.043Z,99010.69
2023-03-26T22:45:55.123Z,99008.72
2023-03-26T22:48:23.876Z,98998.50
2023-03-26T22:51:06.009Z,99009.97
2023-03-26T22:53:34.740Z,99010.28
2023-03-26T22:56:03.081Z,99003.75
2023-03-26T22:58:30.527Z,99005.16
2023-03-26T23:01:07.981Z,99014.06
2023-03-26T23:03:37.204Z,98997.28
2023-03-26T23:06:07.548Z,98984.97
2023-03-26T23:08:37.399Z,98981.38
2023-03-26T23:11:17.070Z,98984.84
2023-03-26T23:13:45.362Z,98987.59
2023-03-26T23:16:14.200Z,98979.28
2023-03-26T23:18:42.070Z,98978.63
2023-03-26T23:21:14.991Z,98978.25
2023-03-26T23:23:42.940Z,98972.37
2023-03-26T23:26:10.900Z,98983.25
2023-03-26T23:28:38.866Z,98970.13
2023-03-26T23:31:09.180Z,98952.69
2023-03-26T23:33:38.553Z,98963.00
2023-03-26T23:36:10.522Z,98962.88
2023-03-26T23:38:43.994Z,98950.81
2023-03-26T23:41:16.172Z,98944.41
2023-03-26T23:43:54.348Z,98941.75
2023-03-26T23:46:25.190Z,98930.31
2023-03-26T23:48:53.278Z,98926.84
2023-03-26T23:51:21.477Z,98913.78
2023-03-26T23:53:49.662Z,98916.41
2023-03-26T23:56:17.563Z,98911.16
2023-03-26T23:58:45.350Z,98905.91
